Time;durP1;ratioP1;P1;durP2;ratioP2;P2;SDS_P1;SDS_P2;PMS_P1;PMS_P2;Temp;Humidity;BMP_temperature;BMP_pressure;BME280_temperature;BME280_humidity;BME280_pressure;Samples;Min_cycle;Max_cycle;Signal;HPM_P1;HPM_P2
2021/08/15 00:01:28;;;;;;;9.98;7.05;;;;;;;;;;1875282;76;21036;-51
2021/08/15 00:03:56;;;;;;;8.50;6.75;;;;;;;;;;1875293;76;21040;-51
2021/08/15 00:06:25;;;;;;;9.58;6.03;;;;;;;;;;1875169;76;21153;-48
2021/08/15 00:08:54;;;;;;;8.48;6.15;;;;;;;;;;1875141;75;21048;-50
2021/08/15 00:11:23;;;;;;;8.78;7.17;;;;;;;;;;1875258;76;21106;-47
2021/08/15 00:13:52;;;;;;;10.32;6.53;;;;;;;;;;1875393;76;21044;-51
2021/08/15 00:16:20;;;;;;;8.65;5.90;;;;;;;;;;1875280;76;21106;-50
2021/08/15 00:18:49;;;;;;;8.05;6.55;;;;;;;;;;1875333;76;21110;-50
2021/08/15 00:21:18;;;;;;;8.20;6.53;;;;;;;;;;1875282;76;21038;-51
2021/08/15 00:23:47;;;;;;;12.20;7.30;;;;;;;;;;1875289;76;21097;-51
2021/08/15 00:26:16;;;;;;;8.23;5.87;;;;;;;;;;1875224;76;21043;-51
2021/08/15 00:28:45;;;;;;;9.75;6.28;;;;;;;;;;1875272;76;21145;-50
2021/08/15 00:31:14;;;;;;;8.73;6.17;;;;;;;;;;1875232;76;21044;-49
2021/08/15 00:33:43;;;;;;;9.33;6.20;;;;;;;;;;1875199;76;21031;-49
2021/08/15 00:36:11;;;;;;;7.83;6.47;;;;;;;;;;1875179;76;21106;-49
2021/08/15 00:38:40;;;;;;;9.08;6.35;;;;;;;;;;1875153;76;21086;-50
2021/08/15 00:41:09;;;;;;;24.43;9.40;;;;;;;;;;1875141;76;21000;-50
2021/08/15 00:43:38;;;;;;;12.00;6.78;;;;;;;;;;1875272;76;21027;-47
2021/08/15 00:46:08;;;;;;;7.67;6.12;;;;;;;;;;1875258;76;21028;-50
2021/08/15 00:48:37;;;;;;;7.87;6.30;;;;;;;;;;1874248;76;21055;-51
2021/08/15 00:51:06;;;;;;;8.35;7.10;;;;;;;;;;1875115;76;21055;-51
2021/08/15 00:53:36;;;;;;;10.78;6.33;;;;;;;;;;1875278;76;21031;-49
2021/08/15 00:56:05;;;;;;;7.25;5.83;;;;;;;;;;1875178;76;21604;-49
2021/08/15 00:58:39;;;;;;;9.63;6.50;;;;;;;;;;1875318;76;21036;-50
2021/08/15 01:01:07;;;;;;;;;;;;;;;;;;1877941;76;21110;-50
2021/08/15 01:03:36;;;;;;;9.23;6.50;;;;;;;;;;1875302;76;20393;-50
2021/08/15 01:06:05;;;;;;;11.48;6.50;;;;;;;;;;1875143;76;21032;-50
2021/08/15 01:08:35;;;;;;;8.93;6.75;;;;;;;;;;1875234;76;21137;-50
2021/08/15 01:11:05;;;;;;;13.15;7.12;;;;;;;;;;1884379;74;21061;-49
2021/08/15 01:13:33;;;;;;;9.40;6.70;;;;;;;;;;1886891;76;21006;-48
2021/08/15 01:16:10;;;;;;;10.88;7.45;;;;;;;;;;1886972;76;21115;-50
2021/08/15 01:18:39;;;;;;;10.00;6.12;;;;;;;;;;1886180;76;21135;-50
2021/08/15 01:21:10;;;;;;;11.57;6.78;;;;;;;;;;1886813;76;21041;-50
2021/08/15 01:23:39;;;;;;;10.23;6.80;;;;;;;;;;1886924;76;21110;-49
2021/08/15 01:26:13;;;;;;;8.20;6.25;;;;;;;;;;1886957;76;21007;-51
2021/08/15 01:28:42;;;;;;;9.53;6.55;;;;;;;;;;1886821;76;21507;-50
2021/08/15 01:31:12;;;;;;;7.92;6.22;;;;;;;;;;1886765;76;21021;-49
2021/08/15 01:33:41;;;;;;;7.47;6.40;;;;;;;;;;1885508;76;21037;-50
2021/08/15 01:36:11;;;;;;;9.95;6.58;;;;;;;;;;1886796;76;21103;-50
2021/08/15 01:38:40;;;;;;;8.55;6.55;;;;;;;;;;1886758;76;21483;-50
2021/08/15 01:41:09;;;;;;;9.60;5.58;;;;;;;;;;1887002;76;21046;-50
2021/08/15 01:43:48;;;;;;;9.65;7.47;;;;;;;;;;1886912;76;21045;-50
2021/08/15 01:46:17;;;;;;;9.83;5.83;;;;;;;;;;1886877;76;21037;-49
2021/08/15 01:48:45;;;;;;;7.28;6.47;;;;;;;;;;1886897;76;21037;-50
2021/08/15 01:51:15;;;;;;;12.00;6.22;;;;;;;;;;1886887;76;21103;-49
2021/08/15 01:53:44;;;;;;;6.70;6.03;;;;;;;;;;1886748;76;21029;-49
2021/08/15 01:56:12;;;;;;;9.03;6.35;;;;;;;;;;1886877;76;21143;-47
2021/08/15 01:58:41;;;;;;;9.05;6.00;;;;;;;;;;1886812;76;21530;-48
2021/08/15 02:01:10;;;;;;;8.93;5.80;;;;;;;;;;1886775;76;21049;-47
2021/08/15 02:03:39;;;;;;;9.55;6.12;;;;;;;;;;1886823;76;21107;-49
2021/08/15 02:06:08;;;;;;;8.05;6.25;;;;;;;;;;1886736;76;21045;-50
2021/08/15 02:08:37;;;;;;;6.92;5.47;;;;;;;;;;1886817;76;21045;-50
2021/08/15 02:11:06;;;;;;;13.30;5.67;;;;;;;;;;1879965;76;21102;-49
2021/08/15 02:13:35;;;;;;;10.25;5.97;;;;;;;;;;1875199;76;21079;-51
2021/08/15 02:16:04;;;;;;;9.43;6.25;;;;;;;;;;1875229;76;21036;-50
2021/08/15 02:18:33;;;;;;;11.95;6.67;;;;;;;;;;1875154;76;21040;-49
2021/08/15 02:21:02;;;;;;;9.05;6.17;;;;;;;;;;1875210;76;21047;-50
2021/08/15 02:23:31;;;;;;;10.40;6.90;;;;;;;;;;1875347;76;21044;-49
2021/08/15 02:25:59;;;;;;;8.00;6.83;;;;;;;;;;1875187;76;21012;-50
2021/08/15 02:28:29;;;;;;;8.80;6.78;;;;;;;;;;1875189;76;21032;-50
2021/08/15 02:30:58;;;;;;;11.30;6.42;;;;;;;;;;1875173;76;21044;-50
2021/08/15 02:33:27;;;;;;;12.70;6.87;;;;;;;;;;1875042;76;21040;-50
2021/08/15 02:35:56;;;;;;;8.53;6.72;;;;;;;;;;1875189;76;21153;-51
2021/08/15 02:38:25;;;;;;;10.32;6.25;;;;;;;;;;1875219;76;21070;-47
2021/08/15 02:40:54;;;;;;;11.43;6.30;;;;;;;;;;1875114;76;21044;-50
2021/08/15 02:43:23;;;;;;;10.40;6.60;;;;;;;;;;1875189;76;21000;-49
2021/08/15 02:45:52;;;;;;;7.78;6.40;;;;;;;;;;1875056;76;21106;-50
2021/08/15 02:48:21;;;;;;;8.50;7.05;;;;;;;;;;1875114;76;21110;-50
2021/08/15 02:50:49;;;;;;;10.23;7.28;;;;;;;;;;1875083;76;21035;-50
2021/08/15 02:53:18;;;;;;;8.30;5.65;;;;;;;;;;1875207;76;21099;-48
2021/08/15 02:55:47;;;;;;;7.33;6.28;;;;;;;;;;1875343;76;21035;-50
2021/08/15 02:58:16;;;;;;;11.53;6.10;;;;;;;;;;1875294;76;21145;-49
2021/08/15 03:00:44;;;;;;;9.10;6.83;;;;;;;;;;1875293;76;21514;-49
2021/08/15 03:03:13;;;;;;;9.98;6.50;;;;;;;;;;1875328;76;21109;-48
2021/08/15 03:05:42;;;;;;;8.05;6.58;;;;;;;;;;1875324;76;21044;-51
2021/08/15 03:08:11;;;;;;;9.83;6.70;;;;;;;;;;1875405;76;21008;-49
2021/08/15 03:10:41;;;;;;;8.65;6.47;;;;;;;;;;1875219;75;21162;-50
2021/08/15 03:13:10;;;;;;;7.62;6.47;;;;;;;;;;1875323;76;21035;-50
2021/08/15 03:15:40;;;;;;;6.87;6.08;;;;;;;;;;1875353;76;21110;-49
2021/08/15 03:18:08;;;;;;;9.65;7.50;;;;;;;;;;1875200;76;20999;-50
2021/08/15 03:20:37;;;;;;;8.10;6.65;;;;;;;;;;1875331;76;21085;-50
2021/08/15 03:23:06;;;;;;;11.57;6.25;;;;;;;;;;1875247;76;21079;-50
2021/08/15 03:25:37;;;;;;;7.25;6.33;;;;;;;;;;1875308;76;21154;-50
2021/08/15 03:28:06;;;;;;;10.63;6.58;;;;;;;;;;1875233;76;21478;-50
2021/08/15 03:30:35;;;;;;;12.88;6.67;;;;;;;;;;1874697;76;21028;-50
2021/08/15 03:33:04;;;;;;;11.22;6.20;;;;;;;;;;1875226;76;21072;-50
2021/08/15 03:35:33;;;;;;;7.53;5.85;;;;;;;;;;1875179;76;21020;-50
2021/08/15 03:38:02;;;;;;;8.90;6.40;;;;;;;;;;1875181;76;21032;-51
2021/08/15 03:40:31;;;;;;;7.53;5.60;;;;;;;;;;1875282;76;21041;-48
2021/08/15 03:43:00;;;;;;;8.05;6.37;;;;;;;;;;1875227;76;21043;-48
2021/08/15 03:45:29;;;;;;;6.60;5.97;;;;;;;;;;1875205;76;21020;-51
2021/08/15 03:47:58;;;;;;;9.00;6.65;;;;;;;;;;1875197;76;21102;-47
2021/08/15 03:50:26;;;;;;;11.22;5.40;;;;;;;;;;1875179;76;21079;-47
2021/08/15 03:52:55;;;;;;;8.40;6.08;;;;;;;;;;1875141;76;21016;-48
2021/08/15 03:55:24;;;;;;;10.70;5.97;;;;;;;;;;1875193;76;21036;-48
2021/08/15 03:57:53;;;;;;;8.70;5.92;;;;;;;;;;1875203;76;21102;-50
2021/08/15 04:00:21;;;;;;;9.53;6.35;;;;;;;;;;1875287;76;21024;-50
2021/08/15 04:02:50;;;;;;;9.33;6.55;;;;;;;;;;1875257;76;21024;-47
2021/08/15 04:05:19;;;;;;;8.10;5.55;;;;;;;;;;1875240;76;21106;-50
2021/08/15 04:07:47;;;;;;;10.43;5.83;;;;;;;;;;1875284;76;21028;-49
2021/08/15 04:10:16;;;;;;;11.88;6.50;;;;;;;;;;1875257;76;21157;-50
2021/08/15 04:12:45;;;;;;;7.28;6.28;;;;;;;;;;1875186;75;21068;-50
2021/08/15 04:15:14;;;;;;;9.18;6.45;;;;;;;;;;1875229;76;21032;-49
2021/08/15 04:17:43;;;;;;;9.90;6.05;;;;;;;;;;1875364;76;21039;-50
2021/08/15 04:20:12;;;;;;;12.93;7.47;;;;;;;;;;1875245;76;21012;-48
2021/08/15 04:22:41;;;;;;;13.45;6.75;;;;;;;;;;1875395;76;21035;-48
2021/08/15 04:25:10;;;;;;;7.62;6.37;;;;;;;;;;1875324;76;21040;-50
2021/08/15 04:27:39;;;;;;;7.87;6.25;;;;;;;;;;1875276;76;21016;-48
2021/08/15 04:30:08;;;;;;;10.78;6.62;;;;;;;;;;1875348;76;21090;-50
2021/08/15 04:32:37;;;;;;;10.35;6.72;;;;;;;;;;1875285;76;20999;-50
2021/08/15 04:35:06;;;;;;;6.60;5.62;;;;;;;;;;1875194;76;21166;-50
2021/08/15 04:37:35;;;;;;;6.87;5.65;;;;;;;;;;1875334;76;21056;-49
2021/08/15 04:40:05;;;;;;;10.40;5.85;;;;;;;;;;1875326;76;21035;-50
2021/08/15 04:42:33;;;;;;;12.23;6.67;;;;;;;;;;1875437;76;21040;-50
2021/08/15 04:45:02;;;;;;;7.15;5.33;;;;;;;;;;1875236;76;21043;-48
2021/08/15 04:47:31;;;;;;;8.58;5.60;;;;;;;;;;1875224;76;21016;-49
2021/08/15 04:50:00;;;;;;;10.10;5.83;;;;;;;;;;1875209;76;21165;-47
2021/08/15 04:52:29;;;;;;;10.98;6.40;;;;;;;;;;1875123;76;21036;-50
2021/08/15 04:54:57;;;;;;;6.83;5.62;;;;;;;;;;1875100;76;21028;-49
2021/08/15 04:57:26;;;;;;;9.58;5.17;;;;;;;;;;1875193;76;21043;-47
2021/08/15 04:59:55;;;;;;;7.78;5.97;;;;;;;;;;1875217;76;21109;-50
2021/08/15 05:02:24;;;;;;;5.70;5.10;;;;;;;;;;1875204;76;21043;-51
2021/08/15 05:04:53;;;;;;;6.87;4.97;;;;;;;;;;1875232;76;21110;-49
2021/08/15 05:07:22;;;;;;;10.45;5.22;;;;;;;;;;1875238;76;21035;-47
2021/08/15 05:09:50;;;;;;;5.65;5.10;;;;;;;;;;1875242;76;21498;-50
2021/08/15 05:12:19;;;;;;;5.90;5.30;;;;;;;;;;1875075;76;21118;-48
2021/08/15 05:14:48;;;;;;;6.97;4.90;;;;;;;;;;1875217;76;21129;-48
2021/08/15 05:17:17;;;;;;;11.75;4.35;;;;;;;;;;1875088;76;21048;-50
2021/08/15 05:19:46;;;;;;;5.35;3.80;;;;;;;;;;1875202;76;21076;-49
2021/08/15 05:22:15;;;;;;;7.25;5.22;;;;;;;;;;1875134;76;21102;-48
2021/08/15 05:24:44;;;;;;;5.95;4.05;;;;;;;;;;1875151;76;21028;-50
2021/08/15 05:27:12;;;;;;;9.28;4.50;;;;;;;;;;1875197;76;21047;-50
2021/08/15 05:29:41;;;;;;;8.70;5.12;;;;;;;;;;1875111;76;21095;-48
2021/08/15 05:32:10;;;;;;;8.85;5.35;;;;;;;;;;1874998;76;21047;-50
2021/08/15 05:34:39;;;;;;;10.30;5.05;;;;;;;;;;1874847;76;21098;-47
2021/08/15 05:37:08;;;;;;;11.22;4.55;;;;;;;;;;1875174;76;21118;-50
2021/08/15 05:39:37;;;;;;;9.93;4.95;;;;;;;;;;1875097;76;21081;-49
2021/08/15 05:42:06;;;;;;;9.30;5.42;;;;;;;;;;1875230;76;21052;-47
2021/08/15 05:44:34;;;;;;;8.68;5.10;;;;;;;;;;1875113;76;21102;-49
2021/08/15 05:47:04;;;;;;;7.70;4.20;;;;;;;;;;1875196;76;21040;-49
2021/08/15 05:49:33;;;;;;;5.92;4.75;;;;;;;;;;1875145;76;21036;-50
2021/08/15 05:52:02;;;;;;;6.67;4.67;;;;;;;;;;1875171;76;21048;-47
2021/08/15 05:54:30;;;;;;;9.80;4.90;;;;;;;;;;1875096;76;21043;-50
2021/08/15 05:56:59;;;;;;;8.55;4.55;;;;;;;;;;1875096;76;21043;-50
2021/08/15 05:59:28;;;;;;;9.38;5.00;;;;;;;;;;1875011;76;21114;-49
2021/08/15 06:01:57;;;;;;;8.75;4.80;;;;;;;;;;1875119;76;21040;-49
2021/08/15 06:04:26;;;;;;;6.37;4.67;;;;;;;;;;1875075;76;21043;-50
2021/08/15 06:06:54;;;;;;;11.63;4.87;;;;;;;;;;1875200;76;21004;-48
2021/08/15 06:09:23;;;;;;;8.60;5.08;;;;;;;;;;1875067;76;21036;-48
2021/08/15 06:11:52;;;;;;;8.43;4.97;;;;;;;;;;1876512;75;21113;-49
2021/08/15 06:14:21;;;;;;;7.58;4.97;;;;;;;;;;1886687;76;21061;-50
2021/08/15 06:16:50;;;;;;;6.30;4.80;;;;;;;;;;1886840;76;21122;-49
2021/08/15 06:19:19;;;;;;;7.17;5.37;;;;;;;;;;1886774;76;21050;-51
2021/08/15 06:21:47;;;;;;;8.05;4.90;;;;;;;;;;1886824;76;21122;-50
2021/08/15 06:24:16;;;;;;;7.40;4.53;;;;;;;;;;1887026;76;21090;-47
2021/08/15 06:26:45;;;;;;;6.83;4.58;;;;;;;;;;1886939;76;21122;-48
2021/08/15 06:29:14;;;;;;;4.90;3.87;;;;;;;;;;1886799;76;21029;-49
2021/08/15 06:31:43;;;;;;;5.62;4.65;;;;;;;;;;1886826;76;21089;-50
2021/08/15 06:34:12;;;;;;;9.95;5.15;;;;;;;;;;1886785;76;21025;-47
2021/08/15 06:36:40;;;;;;;6.17;4.55;;;;;;;;;;1886905;76;21045;-47
2021/08/15 06:39:09;;;;;;;6.00;4.97;;;;;;;;;;1886696;76;21041;-49
2021/08/15 06:41:38;;;;;;;6.85;4.00;;;;;;;;;;1886875;76;21107;-49
2021/08/15 06:44:07;;;;;;;6.95;4.58;;;;;;;;;;1886844;76;21104;-50
2021/08/15 06:46:36;;;;;;;7.17;3.95;;;;;;;;;;1886922;76;21171;-47
2021/08/15 06:49:05;;;;;;;11.28;4.40;;;;;;;;;;1886831;76;21049;-50
2021/08/15 06:51:34;;;;;;;8.55;4.17;;;;;;;;;;1886760;76;21045;-50
2021/08/15 06:54:03;;;;;;;5.47;4.25;;;;;;;;;;1886760;76;21049;-50
2021/08/15 06:56:32;;;;;;;5.58;4.45;;;;;;;;;;1886762;76;21045;-49
2021/08/15 06:59:01;;;;;;;5.42;4.17;;;;;;;;;;1886985;76;21049;-50
2021/08/15 07:01:29;;;;;;;4.83;4.33;;;;;;;;;;1886883;76;21037;-50
2021/08/15 07:03:58;;;;;;;6.65;4.60;;;;;;;;;;1886895;76;21524;-49
2021/08/15 07:06:27;;;;;;;5.33;4.30;;;;;;;;;;1886797;76;21174;-50
2021/08/15 07:08:56;;;;;;;4.87;3.85;;;;;;;;;;1886732;76;21021;-50
2021/08/15 07:11:24;;;;;;;8.25;3.80;;;;;;;;;;1886769;76;21111;-50
2021/08/15 07:13:53;;;;;;;13.43;8.05;;;;;;;;;;1877525;75;21027;-51
2021/08/15 07:16:22;;;;;;;5.40;3.50;;;;;;;;;;1875263;76;21035;-50
2021/08/15 07:18:51;;;;;;;4.28;3.83;;;;;;;;;;1875217;76;21028;-49
2021/08/15 07:21:20;;;;;;;3.95;3.52;;;;;;;;;;1875172;76;21109;-48
2021/08/15 07:23:49;;;;;;;4.20;2.90;;;;;;;;;;1875170;76;21040;-51
2021/08/15 07:26:17;;;;;;;4.30;3.27;;;;;;;;;;1875343;76;21003;-48
2021/08/15 07:28:46;;;;;;;4.67;3.37;;;;;;;;;;1875188;76;21389;-50
2021/08/15 07:31:15;;;;;;;5.17;2.95;;;;;;;;;;1875143;76;21020;-49
2021/08/15 07:33:44;;;;;;;4.78;3.02;;;;;;;;;;1875083;76;21016;-47
2021/08/15 07:36:13;;;;;;;4.12;2.90;;;;;;;;;;1875410;76;21044;-49
2021/08/15 07:38:42;;;;;;;4.20;3.00;;;;;;;;;;1875150;76;21039;-51
2021/08/15 07:41:10;;;;;;;4.03;3.12;;;;;;;;;;1875197;76;21106;-51
2021/08/15 07:43:39;;;;;;;7.30;5.75;;;;;;;;;;1875221;76;21000;-50
2021/08/15 07:46:13;;;;;;;3.62;3.20;;;;;;;;;;1875323;76;21106;-49
2021/08/15 07:48:38;;;;;;;5.55;3.40;;;;;;;;;;1874536;76;21529;-50
2021/08/15 07:51:07;;;;;;;6.05;3.40;;;;;;;;;;1875193;76;21161;-49
2021/08/15 07:53:36;;;;;;;5.33;3.40;;;;;;;;;;1875080;76;21036;-49
2021/08/15 07:56:05;;;;;;;6.80;3.35;;;;;;;;;;1875152;76;21102;-49
2021/08/15 07:58:35;;;;;;;3.92;3.40;;;;;;;;;;1875272;76;21401;-50
2021/08/15 08:01:04;;;;;;;5.67;4.03;;;;;;;;;;1875185;76;21474;-47
2021/08/15 08:03:32;;;;;;;5.00;3.33;;;;;;;;;;1875236;76;21098;-49
2021/08/15 08:06:01;;;;;;;3.77;2.92;;;;;;;;;;1875288;76;21004;-50
2021/08/15 08:08:30;;;;;;;4.53;3.55;;;;;;;;;;1875118;76;21048;-50
2021/08/15 08:10:59;;;;;;;4.72;3.42;;;;;;;;;;1875132;76;21044;-50
2021/08/15 08:13:29;;;;;;;3.87;3.10;;;;;;;;;;1875172;75;21064;-49
2021/08/15 08:15:57;;;;;;;3.75;3.35;;;;;;;;;;1875171;76;21070;-48
2021/08/15 08:18:26;;;;;;;4.60;4.15;;;;;;;;;;1875087;76;21102;-51
2021/08/15 08:20:55;;;;;;;4.55;3.50;;;;;;;;;;1875149;76;21106;-49
2021/08/15 08:23:24;;;;;;;6.08;3.65;;;;;;;;;;1875020;76;21056;-47
2021/08/15 08:25:54;;;;;;;4.20;3.35;;;;;;;;;;1875106;76;21043;-48
2021/08/15 08:28:23;;;;;;;5.40;3.77;;;;;;;;;;1875071;76;21032;-47
2021/08/15 08:30:52;;;;;;;4.45;3.22;;;;;;;;;;1875136;76;21040;-51
2021/08/15 08:33:21;;;;;;;9.93;3.75;;;;;;;;;;1875027;76;21044;-48
2021/08/15 08:35:50;;;;;;;4.50;3.60;;;;;;;;;;1875302;76;21044;-47
2021/08/15 08:38:19;;;;;;;3.70;3.30;;;;;;;;;;1875146;76;21043;-48
2021/08/15 08:40:48;;;;;;;4.53;4.10;;;;;;;;;;1875300;76;21090;-50
2021/08/15 08:43:18;;;;;;;4.75;3.40;;;;;;;;;;1875158;76;21039;-50
2021/08/15 08:45:47;;;;;;;6.53;3.52;;;;;;;;;;1875296;76;21098;-50
2021/08/15 08:48:17;;;;;;;4.85;3.77;;;;;;;;;;1875118;76;21032;-50
2021/08/15 08:50:45;;;;;;;5.25;3.72;;;;;;;;;;1875251;76;21031;-49
2021/08/15 08:53:14;;;;;;;4.75;3.20;;;;;;;;;;1875262;76;21032;-49
2021/08/15 08:55:43;;;;;;;4.75;3.52;;;;;;;;;;1875366;76;21056;-47
2021/08/15 08:58:11;;;;;;;4.05;2.98;;;;;;;;;;1875196;76;21036;-50
2021/08/15 09:00:40;;;;;;;5.70;3.98;;;;;;;;;;1875349;76;21027;-50
2021/08/15 09:03:08;;;;;;;5.20;2.67;;;;;;;;;;1875087;76;21117;-49
2021/08/15 09:05:37;;;;;;;5.08;3.10;;;;;;;;;;1875117;76;21075;-51
2021/08/15 09:08:06;;;;;;;4.50;3.08;;;;;;;;;;1875208;76;21101;-49
2021/08/15 09:10:41;;;;;;;3.22;2.58;;;;;;;;;;1875234;76;21044;-50
2021/08/15 09:13:09;;;;;;;4.60;3.00;;;;;;;;;;1874771;75;21098;-48
2021/08/15 09:15:38;;;;;;;4.22;2.60;;;;;;;;;;1875106;76;21146;-48
2021/08/15 09:18:08;;;;;;;7.35;2.80;;;;;;;;;;1873301;76;21076;-50
2021/08/15 09:20:41;;;;;;;5.53;2.90;;;;;;;;;;1875210;76;21080;-50
2021/08/15 09:23:26;;;;;;;6.75;2.70;;;;;;;;;;1875236;76;21031;-48
2021/08/15 09:26:14;;;;;;;3.72;3.00;;;;;;;;;;1875451;76;21036;-50
2021/08/15 09:28:43;;;;;;;7.05;2.98;;;;;;;;;;1875066;76;21122;-50
2021/08/15 09:31:28;;;;;;;3.90;3.05;;;;;;;;;;1875143;76;21089;-48
2021/08/15 09:33:54;;;;;;;12.35;8.15;;;;;;;;;;1873538;76;21125;-49
2021/08/15 09:36:36;;;;;;;6.00;4.35;;;;;;;;;;1875162;76;21501;-51
2021/08/15 09:39:06;;;;;;;9.55;3.87;;;;;;;;;;1809338;76;21090;-50
2021/08/15 09:41:35;;;;;;;6.60;4.55;;;;;;;;;;1875124;76;21063;-49
2021/08/15 09:44:22;;;;;;;5.15;3.10;;;;;;;;;;1874179;76;21051;-51
2021/08/15 09:47:01;;;;;;;6.90;3.45;;;;;;;;;;1873892;76;21125;-49
2021/08/15 09:49:34;;;;;;;18.50;12.07;;;;;;;;;;1875181;76;21482;-50
2021/08/15 09:52:03;;;;;;;3.40;2.52;;;;;;;;;;1874158;76;21056;-51
2021/08/15 09:54:33;;;;;;;5.25;3.58;;;;;;;;;;1875186;76;21031;-50
2021/08/15 09:57:04;;;;;;;6.83;3.20;;;;;;;;;;1875186;76;21027;-50
2021/08/15 09:59:35;;;;;;;10.38;4.08;;;;;;;;;;1875054;76;21027;-51
2021/08/15 10:02:05;;;;;;;4.95;3.47;;;;;;;;;;1875196;76;21110;-50
2021/08/15 10:04:33;;;;;;;6.55;3.58;;;;;;;;;;1875087;76;21109;-50
2021/08/15 10:07:02;;;;;;;4.05;3.65;;;;;;;;;;1875121;76;21043;-51
2021/08/15 10:09:31;;;;;;;7.10;4.20;;;;;;;;;;1875161;76;21109;-51
2021/08/15 10:12:00;;;;;;;6.65;4.47;;;;;;;;;;1875063;76;21109;-50
2021/08/15 10:14:29;;;;;;;8.50;4.35;;;;;;;;;;1875090;75;21063;-50
2021/08/15 10:16:59;;;;;;;8.00;3.12;;;;;;;;;;1875298;76;21114;-50
2021/08/15 10:19:38;;;;;;;11.60;4.80;;;;;;;;;;1875122;76;21051;-50
2021/08/15 10:22:07;;;;;;;6.75;4.15;;;;;;;;;;1874550;76;21089;-48
2021/08/15 10:24:43;;;;;;;6.28;4.08;;;;;;;;;;1874933;76;21016;-50
2021/08/15 10:27:13;;;;;;;7.87;3.52;;;;;;;;;;1874998;76;21000;-49
2021/08/15 10:29:44;;;;;;;5.80;3.60;;;;;;;;;;1870345;76;20992;-51
2021/08/15 10:32:14;;;;;;;7.45;4.05;;;;;;;;;;1875254;76;21105;-49
2021/08/15 10:34:54;;;;;;;3.83;3.30;;;;;;;;;;1874978;76;21091;-47
2021/08/15 10:37:30;;;;;;;5.22;3.70;;;;;;;;;;1875051;76;21094;-49
2021/08/15 10:40:03;;;;;;;3.77;3.33;;;;;;;;;;1875250;76;20992;-51
2021/08/15 10:42:42;;;;;;;5.08;3.50;;;;;;;;;;1875058;76;21098;-51
2021/08/15 10:45:13;;;;;;;4.80;3.60;;;;;;;;;;1875080;76;21105;-50
2021/08/15 10:47:42;;;;;;;6.10;3.40;;;;;;;;;;1875012;76;21028;-50
2021/08/15 10:50:12;;;;;;;5.85;3.27;;;;;;;;;;1843808;76;21035;-49
2021/08/15 10:52:41;;;;;;;5.85;3.50;;;;;;;;;;1874903;76;21074;-51
2021/08/15 10:55:15;;;;;;;5.40;4.20;;;;;;;;;;1874992;76;21032;-48
2021/08/15 10:57:50;;;;;;;6.42;3.35;;;;;;;;;;1874948;76;21470;-51
2021/08/15 11:00:32;;;;;;;5.30;3.70;;;;;;;;;;1875079;76;21471;-50
2021/08/15 11:03:02;;;;;;;10.80;6.35;;;;;;;;;;1874974;76;21063;-50
2021/08/15 11:05:35;;;;;;;5.10;3.92;;;;;;;;;;1870428;76;20996;-47
2021/08/15 11:08:04;;;;;;;6.33;4.50;;;;;;;;;;1875019;76;21107;-50
2021/08/15 11:10:51;;;;;;;13.43;4.33;;;;;;;;;;1875106;76;21097;-51
2021/08/15 11:13:20;;;;;;;9.20;4.20;;;;;;;;;;1875083;76;21051;-51
2021/08/15 11:15:49;;;;;;;4.97;3.75;;;;;;;;;;1875163;75;21071;-50
2021/08/15 11:18:18;;;;;;;7.95;3.62;;;;;;;;;;1875258;76;21055;-47
2021/08/15 11:20:52;;;;;;;4.62;3.40;;;;;;;;;;1875246;76;21040;-50
2021/08/15 11:23:21;;;;;;;8.25;3.27;;;;;;;;;;1875187;76;21584;-49
2021/08/15 11:25:50;;;;;;;4.78;3.40;;;;;;;;;;1875280;76;21576;-50
2021/08/15 11:28:19;;;;;;;4.85;3.20;;;;;;;;;;1875169;76;21031;-51
2021/08/15 11:30:56;;;;;;;2.87;2.45;;;;;;;;;;1875175;76;21149;-51
2021/08/15 11:33:25;;;;;;;5.65;3.47;;;;;;;;;;1875114;76;21055;-50
2021/08/15 11:35:55;;;;;;;6.17;4.10;;;;;;;;;;1875278;76;21105;-51
2021/08/15 11:38:24;;;;;;;3.50;3.10;;;;;;;;;;1875315;76;21094;-49
2021/08/15 11:40:54;;;;;;;6.92;4.28;;;;;;;;;;1875148;76;21048;-50
2021/08/15 11:43:24;;;;;;;4.83;3.33;;;;;;;;;;1875061;76;21548;-51
2021/08/15 11:45:56;;;;;;;7.08;3.92;;;;;;;;;;1875266;76;21422;-51
2021/08/15 11:48:26;;;;;;;5.20;4.08;;;;;;;;;;1875155;76;21023;-50
2021/08/15 11:50:56;;;;;;;5.47;4.17;;;;;;;;;;1875237;76;21556;-51
2021/08/15 11:53:26;;;;;;;10.50;4.90;;;;;;;;;;1875191;76;21004;-50
2021/08/15 11:55:56;;;;;;;4.83;4.17;;;;;;;;;;1875271;76;21040;-50
2021/08/15 11:58:25;;;;;;;6.70;4.15;;;;;;;;;;1875148;76;21036;-50
2021/08/15 12:00:54;;;;;;;5.75;3.90;;;;;;;;;;1875261;76;21102;-52
2021/08/15 12:03:24;;;;;;;4.60;4.10;;;;;;;;;;1875107;76;21044;-51
2021/08/15 12:05:54;;;;;;;8.05;4.30;;;;;;;;;;1875272;76;21498;-51
2021/08/15 12:08:23;;;;;;;6.50;5.05;;;;;;;;;;1875127;76;20996;-50
2021/08/15 12:10:53;;;;;;;7.53;5.60;;;;;;;;;;1874158;76;21032;-51
2021/08/15 12:13:24;;;;;;;5.80;4.60;;;;;;;;;;1875135;76;21031;-51
2021/08/15 12:16:00;;;;;;;6.08;4.78;;;;;;;;;;1875159;75;21071;-50
2021/08/15 12:18:30;;;;;;;6.00;4.65;;;;;;;;;;1875152;76;21470;-49
2021/08/15 12:21:00;;;;;;;5.35;4.85;;;;;;;;;;1875191;76;21055;-50
2021/08/15 12:23:29;;;;;;;6.70;5.28;;;;;;;;;;1875191;76;21071;-50
2021/08/15 12:26:02;;;;;;;7.80;5.12;;;;;;;;;;1844847;76;21099;-50
2021/08/15 12:28:34;;;;;;;6.47;5.58;;;;;;;;;;1865637;76;21055;-50
2021/08/15 12:31:19;;;;;;;6.40;4.97;;;;;;;;;;1875178;76;21490;-51
2021/08/15 12:33:48;;;;;;;7.25;5.28;;;;;;;;;;1875054;76;21090;-51
2021/08/15 12:36:18;;;;;;;6.87;5.53;;;;;;;;;;1875197;76;21028;-51
2021/08/15 12:38:49;;;;;;;7.58;5.87;;;;;;;;;;1875089;76;21008;-47
2021/08/15 12:41:24;;;;;;;8.53;5.75;;;;;;;;;;1875098;76;21055;-49
2021/08/15 12:44:09;;;;;;;6.92;5.92;;;;;;;;;;1874791;76;21059;-50
2021/08/15 12:46:38;;;;;;;7.03;5.70;;;;;;;;;;1875397;76;21165;-50
2021/08/15 12:49:20;;;;;;;6.97;5.60;;;;;;;;;;1875248;76;21040;-51
2021/08/15 12:51:50;;;;;;;6.78;6.08;;;;;;;;;;1875057;76;21106;-51
2021/08/15 12:54:19;;;;;;;8.73;5.58;;;;;;;;;;1875151;75;21083;-49
2021/08/15 12:56:47;;;;;;;11.20;5.72;;;;;;;;;;1875233;76;21032;-50
2021/08/15 12:59:16;;;;;;;8.38;6.12;;;;;;;;;;1875042;76;21033;-50
2021/08/15 13:01:47;;;;;;;6.90;5.97;;;;;;;;;;1875227;76;21032;-50
2021/08/15 13:04:15;;;;;;;6.35;5.60;;;;;;;;;;1875036;75;21528;-51
2021/08/15 13:06:44;;;;;;;9.28;6.12;;;;;;;;;;1875201;76;21106;-50
2021/08/15 13:09:13;;;;;;;7.35;6.45;;;;;;;;;;1875150;76;21035;-51
2021/08/15 13:11:41;;;;;;;18.07;7.28;;;;;;;;;;1875067;76;21027;-50
2021/08/15 13:14:10;;;;;;;7.53;5.58;;;;;;;;;;1875088;76;21004;-51
2021/08/15 13:16:40;;;;;;;9.63;6.45;;;;;;;;;;1845307;76;21137;-50
2021/08/15 13:19:09;;;;;;;8.68;6.35;;;;;;;;;;1875109;76;21071;-51
2021/08/15 13:21:37;;;;;;;6.70;5.50;;;;;;;;;;1875176;76;21031;-50
2021/08/15 13:24:06;;;;;;;9.20;6.45;;;;;;;;;;1875187;76;21032;-50
2021/08/15 13:26:35;;;;;;;9.88;5.55;;;;;;;;;;1875086;76;21097;-50
2021/08/15 13:29:04;;;;;;;7.97;5.83;;;;;;;;;;1875233;76;21094;-51
2021/08/15 13:31:33;;;;;;;5.83;5.20;;;;;;;;;;1875108;76;21177;-47
2021/08/15 13:34:02;;;;;;;6.20;4.60;;;;;;;;;;1875176;76;21044;-50
2021/08/15 13:36:31;;;;;;;6.90;5.50;;;;;;;;;;1875201;76;21035;-50
2021/08/15 13:39:00;;;;;;;11.22;5.40;;;;;;;;;;1875097;76;21052;-50
2021/08/15 13:41:29;;;;;;;6.47;5.10;;;;;;;;;;1875246;76;21079;-50
2021/08/15 13:43:59;;;;;;;6.70;5.90;;;;;;;;;;1875070;76;21044;-50
2021/08/15 13:46:28;;;;;;;6.47;5.08;;;;;;;;;;1875095;76;21004;-50
2021/08/15 13:48:56;;;;;;;6.28;5.08;;;;;;;;;;1875096;76;21043;-51
2021/08/15 13:51:25;;;;;;;5.75;5.05;;;;;;;;;;1875102;76;21110;-50
2021/08/15 13:53:54;;;;;;;6.03;4.60;;;;;;;;;;1875047;76;21043;-50
2021/08/15 13:56:23;;;;;;;6.65;5.15;;;;;;;;;;1875143;76;21040;-50
2021/08/15 13:58:52;;;;;;;13.88;5.67;;;;;;;;;;1875103;76;21109;-50
2021/08/15 14:01:21;;;;;;;8.70;5.53;;;;;;;;;;1875114;76;21053;-48
2021/08/15 14:03:50;;;;;;;9.45;5.70;;;;;;;;;;1875100;76;21047;-51
2021/08/15 14:06:18;;;;;;;11.40;6.95;;;;;;;;;;1875261;76;21533;-49
2021/08/15 14:08:47;;;;;;;8.25;6.22;;;;;;;;;;1875130;76;21125;-49
2021/08/15 14:11:16;;;;;;;8.70;6.92;;;;;;;;;;1875171;76;21023;-48
2021/08/15 14:13:45;;;;;;;7.70;6.33;;;;;;;;;;1875067;76;21016;-49
2021/08/15 14:16:14;;;;;;;10.18;7.80;;;;;;;;;;1875183;75;21059;-49
2021/08/15 14:18:43;;;;;;;11.73;8.65;;;;;;;;;;1875160;76;21039;-50
2021/08/15 14:21:11;;;;;;;11.57;7.22;;;;;;;;;;1875157;76;21083;-50
2021/08/15 14:23:40;;;;;;;12.13;8.20;;;;;;;;;;1875073;76;21032;-49
2021/08/15 14:26:09;;;;;;;14.05;8.93;;;;;;;;;;1875091;76;21083;-49
2021/08/15 14:28:38;;;;;;;11.78;8.78;;;;;;;;;;1875220;76;21024;-50
2021/08/15 14:31:07;;;;;;;10.75;9.23;;;;;;;;;;1875096;76;21012;-50
2021/08/15 14:33:36;;;;;;;10.20;8.35;;;;;;;;;;1875081;76;21110;-49
2021/08/15 14:36:04;;;;;;;17.52;13.88;;;;;;;;;;1875085;76;21025;-49
2021/08/15 14:38:33;;;;;;;13.72;10.55;;;;;;;;;;1875298;76;21036;-50
2021/08/15 14:41:03;;;;;;;13.28;10.20;;;;;;;;;;1875059;76;21036;-50
2021/08/15 14:43:33;;;;;;;14.13;10.03;;;;;;;;;;1875128;76;21032;-50
2021/08/15 14:46:01;;;;;;;13.83;10.93;;;;;;;;;;1875026;76;21039;-50
2021/08/15 14:48:30;;;;;;;14.87;11.65;;;;;;;;;;1874919;76;21114;-47
2021/08/15 14:50:59;;;;;;;14.83;10.93;;;;;;;;;;1875032;76;21067;-48
2021/08/15 14:53:28;;;;;;;15.25;11.33;;;;;;;;;;1875203;76;21040;-49
2021/08/15 14:55:59;;;;;;;14.23;10.28;;;;;;;;;;1875247;76;21027;-50